Time;durP1;ratioP1;P1;durP2;ratioP2;P2;SDS_P1;SDS_P2;PMS_P1;PMS_P2;Temp;Humidity;BMP_temperature;BMP_pressure;BME280_temperature;BME280_humidity;BME280_pressure;Samples;Min_cycle;Max_cycle;Signal;HPM_P1;HPM_P2
2021/06/19 00:00:09;;;;;;;3.60;2.88;;;27.40;60.70;;;;;;5012896;28;20026;-57
2021/06/19 00:02:34;;;;;;;5.78;2.70;;;27.40;60.60;;;;;;5011886;28;20033;-57
2021/06/19 00:05:00;;;;;;;2.85;2.35;;;27.40;60.70;;;;;;5012696;28;20046;-57
2021/06/19 00:07:26;;;;;;;4.60;2.28;;;27.30;60.60;;;;;;5013086;28;20018;-57
2021/06/19 00:09:51;;;;;;;3.83;2.60;;;27.40;60.70;;;;;;5012657;28;20026;-57
2021/06/19 00:12:18;;;;;;;4.30;2.55;;;27.40;60.60;;;;;;5012999;28;20025;-57
2021/06/19 00:14:44;;;;;;;3.40;2.53;;;27.30;60.60;;;;;;5012129;28;20121;-58
2021/06/19 00:17:11;;;;;;;3.40;2.10;;;27.40;60.70;;;;;;5012438;28;20108;-57
2021/06/19 00:19:37;;;;;;;6.53;2.75;;;27.50;60.80;;;;;;5012605;28;20033;-57
2021/06/19 00:22:04;;;;;;;2.35;2.13;;;27.70;60.90;;;;;;5012566;28;20026;-57
2021/06/19 00:24:35;;;;;;;3.15;2.22;;;27.40;60.70;;;;;;5011676;28;20026;-57
2021/06/19 00:27:00;;;;;;;5.65;2.78;;;27.30;60.60;;;;;;5012674;28;20029;-58
2021/06/19 00:29:26;;;;;;;3.75;2.72;;;27.30;60.60;;;;;;5014259;28;20030;-57
2021/06/19 00:31:51;;;;;;;4.25;2.28;;;27.30;60.60;;;;;;5016392;28;20058;-55
2021/06/19 00:34:17;;;;;;;2.97;2.15;;;27.30;60.60;;;;;;5016193;28;20038;-56
2021/06/19 00:36:43;;;;;;;3.85;2.28;;;27.30;60.60;;;;;;5015326;28;20076;-57
2021/06/19 00:39:09;;;;;;;2.75;2.08;;;27.30;60.60;;;;;;5016493;28;20425;-57
2021/06/19 00:41:35;;;;;;;3.50;2.65;;;27.30;60.00;;;;;;5016471;28;20036;-56
2021/06/19 00:44:05;;;;;;;3.25;2.70;;;27.50;60.80;;;;;;5015982;28;20076;-56
2021/06/19 00:46:31;;;;;;;4.30;2.15;;;27.30;60.60;;;;;;5015720;28;20030;-57
2021/06/19 00:48:57;;;;;;;5.28;2.58;;;27.30;60.50;;;;;;5014545;28;20392;-57
2021/06/19 00:51:23;;;;;;;3.63;2.42;;;27.30;60.60;;;;;;5016084;28;20022;-57
2021/06/19 00:53:49;;;;;;;3.20;2.10;;;27.20;60.50;;;;;;5014603;28;20481;-57
2021/06/19 00:56:14;;;;;;;3.70;2.13;;;27.30;60.60;;;;;;5016078;28;20030;-56
2021/06/19 00:58:40;;;;;;;2.17;1.98;;;27.20;60.60;;;;;;5016093;28;20030;-57
2021/06/19 01:01:06;;;;;;;4.28;2.17;;;27.20;60.60;;;;;;5014939;28;20014;-57
2021/06/19 01:03:32;;;;;;;2.25;1.95;;;27.20;60.60;;;;;;5015947;28;20385;-56
2021/06/19 01:05:58;;;;;;;3.78;2.40;;;27.30;60.70;;;;;;5014701;28;20053;-57
2021/06/19 01:08:24;;;;;;;3.40;2.55;;;27.20;60.60;;;;;;5015695;28;20385;-57
2021/06/19 01:10:52;;;;;;;3.17;2.10;;;27.20;60.70;;;;;;5015662;28;20380;-57
2021/06/19 01:13:18;;;;;;;2.60;2.20;;;27.20;60.60;;;;;;5015679;28;20422;-57
2021/06/19 01:15:44;;;;;;;4.00;2.28;;;27.20;61.40;;;;;;5015788;28;20021;-57
2021/06/19 01:18:09;;;;;;;1.80;1.70;;;27.20;60.60;;;;;;5015507;28;20440;-58
2021/06/19 01:20:36;;;;;;;1.95;1.77;;;27.20;60.60;;;;;;5015750;28;20026;-57
2021/06/19 01:23:02;;;;;;;2.65;2.05;;;27.20;60.60;;;;;;5014563;28;20022;-57
2021/06/19 01:25:33;;;;;;;3.95;2.00;;;27.50;60.90;;;;;;5015636;28;20041;-57
2021/06/19 01:28:00;;;;;;;3.55;1.70;;;27.10;60.50;;;;;;5015653;28;20025;-58
2021/06/19 01:30:28;;;;;;;2.60;1.90;;;27.20;60.70;;;;;;5015199;28;20133;-57
2021/06/19 01:32:54;;;;;;;2.08;1.85;;;27.10;60.50;;;;;;5015175;28;20029;-56
2021/06/19 01:35:22;;;;;;;2.10;1.80;;;27.10;60.60;;;;;;5015462;28;20041;-57
2021/06/19 01:37:50;;;;;;;2.42;1.70;;;27.10;60.50;;;;;;5015136;28;20018;-57
2021/06/19 01:40:24;;;;;;;1.77;1.67;;;27.10;60.60;;;;;;5013997;28;20032;-58
2021/06/19 01:42:51;;;;;;;1.98;1.67;;;27.10;60.60;;;;;;5014794;28;20377;-57
2021/06/19 01:45:23;;;;;;;4.70;1.40;;;27.10;60.50;;;;;;5015161;28;20022;-57
2021/06/19 01:47:49;;;;;;;1.95;1.65;;;27.10;60.60;;;;;;5013625;28;20101;-57
2021/06/19 01:50:17;;;;;;;2.35;1.88;;;27.10;60.60;;;;;;5014879;28;20173;-57
2021/06/19 01:52:44;;;;;;;1.92;1.73;;;27.10;60.60;;;;;;5013585;28;20037;-58
2021/06/19 01:55:10;;;;;;;2.97;1.63;;;27.10;60.50;;;;;;5013521;28;20393;-57
2021/06/19 01:57:37;;;;;;;2.13;1.40;;;27.10;60.50;;;;;;5014726;28;20089;-55
2021/06/19 02:00:26;;;;;;;1.80;1.70;;;27.10;60.50;;;;;;5013926;28;20061;-57
2021/06/19 02:02:53;;;;;;;1.60;1.50;;;27.10;60.60;;;;;;5013520;28;20462;-57
2021/06/19 02:05:19;;;;;;;1.40;1.30;;;27.00;60.40;;;;;;5013317;28;20594;-58
2021/06/19 02:07:56;;;;;;;1.98;1.55;;;27.10;60.60;;;;;;5014563;28;20057;-58
2021/06/19 02:10:24;;;;;;;3.45;1.70;;;27.00;60.50;;;;;;5014184;28;20052;-58
2021/06/19 02:12:50;;;;;;;3.70;1.55;;;27.00;60.50;;;;;;5014358;28;20033;-57
2021/06/19 02:15:17;;;;;;;4.57;1.88;;;27.00;60.50;;;;;;5014427;28;20034;-57
2021/06/19 02:17:42;;;;;;;2.13;1.92;;;27.00;60.50;;;;;;5014573;28;20101;-58
2021/06/19 02:20:10;;;;;;;2.97;2.00;;;27.00;60.50;;;;;;5014631;28;20458;-58
2021/06/19 02:22:36;;;;;;;3.67;2.05;;;27.00;60.50;;;;;;5014334;28;20026;-58
2021/06/19 02:25:07;;;;;;;2.08;1.88;;;27.00;60.60;;;;;;5014186;28;20030;-57
2021/06/19 02:27:33;;;;;;;2.50;2.30;;;27.00;60.60;;;;;;5013769;28;20018;-58
2021/06/19 02:29:59;;;;;;;1.83;1.73;;;27.00;60.60;;;;;;5014169;28;20080;-57
2021/06/19 02:32:26;;;;;;;2.63;2.10;;;27.00;60.60;;;;;;5014451;28;20192;-58
2021/06/19 02:34:51;;;;;;;4.88;3.00;;;27.00;60.60;;;;;;5013956;28;20389;-57
2021/06/19 02:37:17;;;;;;;3.65;2.78;;;27.00;61.20;;;;;;5014111;28;20048;-58
2021/06/19 02:39:43;;;;;;;2.97;2.67;;;27.00;60.70;;;;;;5014095;28;20037;-58
2021/06/19 02:42:09;;;;;;;3.53;2.60;;;27.00;60.70;;;;;;5013094;28;20032;-59
2021/06/19 02:44:34;;;;;;;4.00;3.45;;;26.90;60.70;;;;;;5013227;28;20022;-58
2021/06/19 02:47:00;;;;;;;4.35;3.55;;;26.90;60.70;;;;;;5013871;28;20099;-58
2021/06/19 02:49:26;;;;;;;3.13;2.88;;;26.90;60.80;;;;;;5013875;28;20040;-58
2021/06/19 02:51:51;;;;;;;5.68;3.70;;;26.90;60.80;;;;;;5012550;28;20137;-56
2021/06/19 02:54:17;;;;;;;3.42;3.05;;;26.90;60.80;;;;;;5013729;28;20389;-58
2021/06/19 02:56:42;;;;;;;4.50;3.72;;;26.90;60.90;;;;;;5013944;28;20022;-58
2021/06/19 02:59:09;;;;;;;4.65;3.78;;;26.90;60.80;;;;;;5013952;28;20042;-58
2021/06/19 03:01:34;;;;;;;4.00;3.50;;;26.90;60.80;;;;;;5012951;28;20317;-58
2021/06/19 03:04:00;;;;;;;3.75;3.38;;;26.90;60.80;;;;;;5012094;28;20512;-57
2021/06/19 03:06:26;;;;;;;7.18;4.40;;;26.90;60.80;;;;;;5013401;28;20493;-58
2021/06/19 03:08:52;;;;;;;4.90;3.80;;;26.90;60.80;;;;;;5013448;28;20109;-58
2021/06/19 03:11:17;;;;;;;5.65;4.75;;;26.90;60.90;;;;;;5013348;28;20065;-58
2021/06/19 03:13:43;;;;;;;5.43;4.22;;;26.90;60.90;;;;;;5013292;28;20045;-58
2021/06/19 03:16:08;;;;;;;5.43;4.38;;;27.00;61.00;;;;;;5013379;28;20381;-58
2021/06/19 03:18:34;;;;;;;6.65;4.35;;;26.80;60.80;;;;;;5013282;28;20033;-58
2021/06/19 03:21:00;;;;;;;6.03;4.22;;;26.90;60.80;;;;;;5013542;28;20081;-58
2021/06/19 03:23:25;;;;;;;5.28;4.35;;;26.90;60.80;;;;;;5011962;28;20503;-58
2021/06/19 03:25:52;;;;;;;8.18;5.03;;;26.80;60.80;;;;;;5012014;28;20022;-58
2021/06/19 03:28:17;;;;;;;5.80;4.40;;;26.80;60.80;;;;;;5013413;28;20056;-58
2021/06/19 03:30:45;;;;;;;6.90;4.78;;;26.90;60.90;;;;;;5013113;28;20018;-59
2021/06/19 03:33:13;;;;;;;5.18;4.45;;;26.80;60.80;;;;;;5013049;28;20034;-58
2021/06/19 03:35:39;;;;;;;6.15;5.10;;;26.80;60.80;;;;;;5013086;28;20496;-58
2021/06/19 03:38:06;;;;;;;10.18;5.40;;;26.80;60.80;;;;;;5013320;28;20385;-58
2021/06/19 03:40:33;;;;;;;8.40;5.13;;;26.80;60.80;;;;;;5013302;28;20026;-58
2021/06/19 03:42:58;;;;;;;9.85;5.85;;;27.00;60.90;;;;;;5012913;28;20496;-58
2021/06/19 03:45:28;;;;;;;9.48;6.03;;;26.80;60.80;;;;;;5013159;28;20017;-58
2021/06/19 03:47:54;;;;;;;8.52;5.75;;;26.60;60.60;;;;;;5013059;28;20149;-58
2021/06/19 03:50:22;;;;;;;8.50;6.35;;;26.80;60.80;;;;;;5013160;28;20018;-58
2021/06/19 03:52:48;;;;;;;8.18;5.65;;;;;;;;;;5012995;28;20026;-58
2021/06/19 03:55:13;;;;;;;8.35;4.93;;;26.80;60.20;;;;;;5012877;28;20040;-58
2021/06/19 03:57:40;;;;;;;10.60;6.70;;;26.80;60.80;;;;;;5012874;28;20022;-58
2021/06/19 04:00:14;;;;;;;8.85;5.80;;;26.80;60.80;;;;;;5012887;28;20064;-58
2021/06/19 04:02:40;;;;;;;7.82;6.15;;;26.80;60.80;;;;;;5013090;28;20101;-58
2021/06/19 04:05:07;;;;;;;7.38;5.47;;;26.80;60.80;;;;;;5016723;28;20445;-58
2021/06/19 04:07:32;;;;;;;8.85;6.25;;;26.80;60.80;;;;;;5017030;28;20033;-58
2021/06/19 04:09:58;;;;;;;7.38;5.30;;;26.80;60.80;;;;;;5016843;28;20412;-58
2021/06/19 04:12:25;;;;;;;8.23;5.75;;;26.80;60.80;;;;;;5016984;28;20025;-58
2021/06/19 04:14:51;;;;;;;8.35;6.20;;;26.70;60.80;;;;;;5016685;28;20073;-58
2021/06/19 04:17:17;;;;;;;8.77;5.63;;;26.70;60.80;;;;;;5016609;28;20128;-58
2021/06/19 04:19:43;;;;;;;8.85;6.13;;;26.70;60.80;;;;;;5016968;28;20026;-58
2021/06/19 04:22:11;;;;;;;7.00;5.53;;;26.80;60.90;;;;;;5016655;28;20034;-58
2021/06/19 04:24:37;;;;;;;9.55;5.40;;;26.70;60.80;;;;;;5015161;28;20025;-58
2021/06/19 04:27:04;;;;;;;6.57;5.43;;;26.80;60.90;;;;;;5016837;28;20056;-57
2021/06/19 04:29:31;;;;;;;6.68;5.43;;;26.70;60.80;;;;;;5015132;28;20018;-58
2021/06/19 04:31:58;;;;;;;6.18;4.90;;;26.70;60.80;;;;;;5016547;28;20022;-58
2021/06/19 04:34:24;;;;;;;7.15;5.18;;;26.70;60.80;;;;;;5016601;28;20030;-58
2021/06/19 04:36:50;;;;;;;7.88;5.40;;;26.70;60.80;;;;;;5016522;28;20018;-58
2021/06/19 04:39:17;;;;;;;6.95;5.10;;;26.70;60.80;;;;;;5016435;28;20115;-58
2021/06/19 04:44:21;;;;;;;6.15;4.68;;;26.70;60.80;;;;;;5016517;28;20030;-59
2021/06/19 04:46:47;;;;;;;6.20;4.45;;;26.70;60.80;;;;;;5016264;28;20018;-58
2021/06/19 04:49:13;;;;;;;5.63;4.72;;;26.70;60.80;;;;;;5016485;28;20022;-58
2021/06/19 04:51:39;;;;;;;5.85;4.38;;;26.70;60.80;;;;;;5016114;28;20039;-58
2021/06/19 04:54:06;;;;;;;4.45;3.30;;;26.70;60.70;;;;;;5015998;28;20048;-58
2021/06/19 04:56:31;;;;;;;5.03;3.60;;;26.70;60.70;;;;;;5015958;28;20029;-57
2021/06/19 04:58:57;;;;;;;5.43;4.10;;;26.60;60.60;;;;;;5015909;28;20056;-58
2021/06/19 05:01:22;;;;;;;7.40;3.65;;;26.60;60.70;;;;;;5016187;28;20018;-58
2021/06/19 05:03:48;;;;;;;4.13;3.55;;;26.60;60.70;;;;;;5015906;28;20358;-58
2021/06/19 05:06:15;;;;;;;4.95;3.95;;;26.80;60.80;;;;;;5015695;28;20045;-58
2021/06/19 05:08:40;;;;;;;4.97;3.63;;;26.60;60.60;;;;;;5015952;28;20022;-59
2021/06/19 05:11:06;;;;;;;4.50;3.63;;;26.70;60.70;;;;;;5015848;28;20049;-59
2021/06/19 05:13:32;;;;;;;3.90;3.50;;;26.60;60.80;;;;;;5015588;28;20033;-58
2021/06/19 05:15:57;;;;;;;3.72;3.42;;;26.60;60.80;;;;;;5014297;28;20018;-58
2021/06/19 05:18:23;;;;;;;3.33;3.03;;;26.60;60.60;;;;;;5015590;28;20075;-58
2021/06/19 05:20:48;;;;;;;4.13;3.42;;;26.70;60.70;;;;;;5015778;28;20416;-58
2021/06/19 05:23:14;;;;;;;5.05;3.72;;;26.60;60.50;;;;;;5015317;28;20049;-58
2021/06/19 05:25:40;;;;;;;6.72;3.10;;;26.60;60.50;;;;;;5015709;28;20101;-58
2021/06/19 05:28:05;;;;;;;3.33;2.92;;;26.60;60.20;;;;;;5015560;28;20014;-59
2021/06/19 05:30:31;;;;;;;5.38;3.38;;;26.70;60.00;;;;;;5015623;28;20568;-58
2021/06/19 05:32:57;;;;;;;5.55;3.55;;;26.60;59.90;;;;;;5015133;28;20022;-58
2021/06/19 05:35:23;;;;;;;4.18;3.28;;;26.80;59.80;;;;;;5015493;28;20030;-57
2021/06/19 05:37:49;;;;;;;4.57;3.67;;;26.70;59.30;;;;;;5015315;28;20456;-58
2021/06/19 05:40:16;;;;;;;4.85;2.97;;;26.60;58.80;;;;;;5015431;28;20080;-58
2021/06/19 05:42:41;;;;;;;4.03;2.97;;;26.50;58.50;;;;;;5015197;28;20029;-57
2021/06/19 05:45:08;;;;;;;3.45;3.00;;;26.50;58.50;;;;;;5013669;28;20377;-58
2021/06/19 05:47:34;;;;;;;5.13;2.72;;;26.50;58.50;;;;;;5015298;28;20072;-57
2021/06/19 05:49:59;;;;;;;4.47;2.85;;;26.50;58.30;;;;;;5015312;28;20026;-58
2021/06/19 05:52:26;;;;;;;4.15;3.08;;;26.60;58.40;;;;;;5014760;28;20092;-58
2021/06/19 05:54:52;;;;;;;6.68;2.90;;;26.50;58.20;;;;;;5013337;28;20053;-58
2021/06/19 05:57:17;;;;;;;4.32;2.72;;;26.50;58.60;;;;;;5015111;28;20018;-58
2021/06/19 05:59:43;;;;;;;5.10;2.25;;;26.70;58.20;;;;;;5015122;28;20641;-58
2021/06/19 06:02:09;;;;;;;4.00;2.20;;;26.50;58.30;;;;;;5014993;28;20065;-58
2021/06/19 06:04:36;;;;;;;2.78;1.85;;;26.40;58.20;;;;;;5014764;28;20033;-58
2021/06/19 06:07:02;;;;;;;4.82;2.08;;;26.50;58.30;;;;;;5014621;28;20026;-59
2021/06/19 06:09:28;;;;;;;2.95;2.00;;;26.50;58.40;;;;;;5014870;28;20115;-58
2021/06/19 06:11:54;;;;;;;3.72;1.73;;;26.50;58.40;;;;;;5014567;28;20057;-58
2021/06/19 06:14:20;;;;;;;2.53;1.95;;;26.50;58.50;;;;;;4996905;28;20065;-58
2021/06/19 06:16:46;;;;;;;1.95;1.65;;;26.50;58.50;;;;;;5014509;28;20099;-58
2021/06/19 06:19:12;;;;;;;3.15;2.22;;;26.50;58.50;;;;;;5014452;28;20049;-58
2021/06/19 06:21:37;;;;;;;2.53;1.90;;;26.60;58.40;;;;;;5014469;28;20436;-58
2021/06/19 06:24:04;;;;;;;2.67;1.55;;;26.50;58.30;;;;;;5014393;28;20030;-57
2021/06/19 06:26:29;;;;;;;3.67;1.40;;;26.50;58.20;;;;;;5014165;28;20084;-58
2021/06/19 06:28:55;;;;;;;4.28;1.70;;;26.50;58.30;;;;;;5014221;28;20033;-57
2021/06/19 06:31:21;;;;;;;4.45;1.60;;;26.50;58.40;;;;;;5014228;28;20030;-57
2021/06/19 06:33:47;;;;;;;5.18;2.17;;;26.50;58.70;;;;;;5014308;28;20053;-58
2021/06/19 06:36:13;;;;;;;2.53;1.63;;;26.50;58.60;;;;;;5014217;28;20018;-57
2021/06/19 06:38:39;;;;;;;2.25;1.70;;;26.50;58.60;;;;;;5014095;28;20084;-57
2021/06/19 06:41:04;;;;;;;3.38;1.50;;;26.50;58.70;;;;;;5014101;28;20393;-58
2021/06/19 06:43:30;;;;;;;4.18;2.60;;;26.70;76.00;;;;;;5014277;28;20054;-57
2021/06/19 06:45:56;;;;;;;3.55;2.38;;;26.50;58.40;;;;;;5014219;28;20121;-58
2021/06/19 06:48:22;;;;;;;3.67;2.67;;;26.50;57.90;;;;;;5014189;28;20022;-57
2021/06/19 06:50:47;;;;;;;3.75;2.85;;;26.50;57.60;;;;;;5014205;28;20058;-57
2021/06/19 06:53:13;;;;;;;3.97;2.75;;;26.70;57.30;;;;;;5013750;28;20025;-57
2021/06/19 06:55:39;;;;;;;5.00;3.20;;;26.60;56.80;;;;;;5013853;28;20026;-57
2021/06/19 06:58:04;;;;;;;4.10;3.22;;;26.40;56.20;;;;;;5014134;28;20114;-57
2021/06/19 07:00:30;;;;;;;3.90;3.00;;;26.40;56.10;;;;;;5013823;28;20570;-58
2021/06/19 07:02:56;;;;;;;3.28;2.65;;;26.40;56.00;;;;;;5013747;28;20106;-58
2021/06/19 07:05:21;;;;;;;3.30;2.10;;;26.40;56.00;;;;;;5013533;28;20042;-58
2021/06/19 07:07:47;;;;;;;3.80;2.00;;;26.40;55.80;;;;;;5013689;28;20028;-58
2021/06/19 07:10:15;;;;;;;2.90;1.85;;;26.40;55.50;;;;;;5013595;28;20093;-57
2021/06/19 07:12:42;;;;;;;3.17;1.98;;;26.40;55.70;;;;;;5013619;28;20018;-58
2021/06/19 07:15:12;;;;;;;2.15;1.75;;;26.10;55.50;;;;;;5013389;28;20477;-57
2021/06/19 07:17:38;;;;;;;;;;;26.30;55.40;;;;;;5014245;28;20021;-58
2021/06/19 07:20:08;;;;;;;3.20;2.13;;;26.30;55.20;;;;;;5013762;28;19913;-56
2021/06/19 07:22:35;;;;;;;4.13;2.03;;;26.30;55.20;;;;;;5013326;28;20385;-57
2021/06/19 07:25:04;;;;;;;3.22;2.20;;;26.50;55.10;;;;;;5013661;28;20059;-57
2021/06/19 07:27:30;;;;;;;1.95;1.48;;;26.30;54.70;;;;;;5013248;28;20034;-57
2021/06/19 07:29:56;;;;;;;3.85;1.55;;;26.20;54.70;;;;;;5012160;28;20489;-58
2021/06/19 07:32:22;;;;;;;4.82;1.50;;;26.20;54.60;;;;;;5013545;28;20022;-58
2021/06/19 07:34:48;;;;;;;1.60;1.00;;;26.20;54.60;;;;;;5013192;28;20501;-56
2021/06/19 07:37:14;;;;;;;1.95;1.10;;;26.20;54.20;;;;;;5012864;28;20025;-57
2021/06/19 07:39:39;;;;;;;2.22;0.93;;;26.20;54.30;;;;;;5012380;28;20045;-58
2021/06/19 07:42:05;;;;;;;4.00;0.90;;;26.20;54.60;;;;;;5013051;28;20516;-58
2021/06/19 07:44:31;;;;;;;3.53;0.95;;;26.10;54.60;;;;;;5012935;28;20049;-58
2021/06/19 07:47:00;;;;;;;0.95;0.70;;;26.20;54.80;;;;;;5013047;28;20022;-58
2021/06/19 07:49:26;;;;;;;0.73;0.73;;;26.20;55.10;;;;;;5012927;28;20022;-58
2021/06/19 07:51:52;;;;;;;1.60;1.15;;;26.20;55.40;;;;;;5013120;28;20065;-58
2021/06/19 07:54:18;;;;;;;1.65;0.70;;;26.20;55.50;;;;;;5012896;28;20153;-58
2021/06/19 07:56:46;;;;;;;0.88;0.75;;;26.20;55.80;;;;;;5012792;28;20517;-57
2021/06/19 07:59:12;;;;;;;1.63;0.60;;;26.30;56.10;;;;;;5013028;28;20033;-58
2021/06/19 08:01:37;;;;;;;2.63;0.60;;;26.20;56.20;;;;;;5012794;28;20417;-57
2021/06/19 08:04:03;;;;;;;1.25;0.65;;;26.20;56.20;;;;;;5012993;28;20022;-58
2021/06/19 08:06:29;;;;;;;0.60;0.60;;;26.20;56.30;;;;;;5012758;28;20500;-58
2021/06/19 08:08:54;;;;;;;2.17;0.65;;;26.20;56.50;;;;;;5012571;28;20172;-57
2021/06/19 08:11:21;;;;;;;0.90;0.60;;;26.30;56.70;;;;;;5012712;28;20029;-58
2021/06/19 08:13:48;;;;;;;0.80;0.80;;;26.20;56.10;;;;;;5012858;28;20045;-56
2021/06/19 08:16:17;;;;;;;1.17;0.70;;;26.10;54.90;;;;;;5012913;28;20020;-55
2021/06/19 08:18:44;;;;;;;2.23;1.10;;;26.10;54.50;;;;;;5012706;28;20037;-56
2021/06/19 08:21:10;;;;;;;1.08;0.98;;;26.10;54.20;;;;;;5012641;28;20048;-57
2021/06/19 08:23:35;;;;;;;1.25;0.90;;;26.00;54.10;;;;;;5012531;28;20109;-57
2021/06/19 08:26:01;;;;;;;1.00;0.80;;;26.00;54.10;;;;;;5012909;28;20037;-57
2021/06/19 08:28:27;;;;;;;1.38;1.08;;;26.00;54.00;;;;;;5012916;28;20077;-57
2021/06/19 08:30:52;;;;;;;1.40;1.30;;;25.90;53.70;;;;;;5012737;28;20496;-57
2021/06/19 08:33:18;;;;;;;2.80;1.40;;;25.90;53.70;;;;;;5012796;28;20413;-57
2021/06/19 08:35:44;;;;;;;2.20;1.40;;;25.90;53.70;;;;;;5012357;28;20032;-55
2021/06/19 08:38:09;;;;;;;4.07;1.88;;;25.90;53.70;;;;;;5012420;28;20092;-57
2021/06/19 08:40:37;;;;;;;1.98;1.30;;;25.70;53.60;;;;;;5012235;28;20038;-57
2021/06/19 08:43:04;;;;;;;1.23;1.20;;;25.90;53.70;;;;;;5012639;28;20104;-58
2021/06/19 08:45:33;;;;;;;2.35;1.30;;;25.70;53.50;;;;;;5011374;28;20084;-56
2021/06/19 08:48:04;;;;;;;1.60;1.33;;;25.80;53.60;;;;;;5012436;28;20030;-57
2021/06/19 08:50:30;;;;;;;1.58;1.17;;;25.70;53.70;;;;;;5014979;28;20018;-55
2021/06/19 08:52:59;;;;;;;1.38;1.13;;;25.70;53.80;;;;;;5015847;28;20026;-55
2021/06/19 08:55:25;;;;;;;1.83;1.40;;;25.70;54.00;;;;;;5015155;28;20026;-56
2021/06/19 08:57:50;;;;;;;2.53;1.40;;;25.70;54.10;;;;;;5014577;28;20544;-52
2021/06/19 09:00:17;;;;;;;4.38;1.02;;;25.70;54.30;;;;;;5015777;28;20169;-56
2021/06/19 09:02:43;;;;;;;4.20;1.33;;;25.70;54.40;;;;;;5016026;28;20387;-55
2021/06/19 09:05:14;;;;;;;1.90;1.00;;;25.60;54.50;;;;;;5015294;28;20570;-55
2021/06/19 09:07:50;;;;;;;1.63;0.90;;;25.70;54.50;;;;;;5015484;28;20030;-56
2021/06/19 09:10:39;;;;;;;2.05;1.30;;;25.70;54.40;;;;;;5015897;28;20468;-57
2021/06/19 09:13:07;;;;;;;1.52;1.10;;;25.50;54.30;;;;;;5015829;28;20026;-57
2021/06/19 09:15:37;;;;;;;1.27;0.90;;;25.70;54.50;;;;;;5014716;28;20496;-56
2021/06/19 09:18:11;;;;;;;2.95;1.13;;;25.60;54.40;;;;;;5014699;28;20116;-57
2021/06/19 09:20:53;;;;;;;1.77;0.90;;;25.60;54.30;;;;;;5014735;28;20068;-57
2021/06/19 09:23:28;;;;;;;4.03;1.20;;;25.70;54.60;;;;;;5015296;28;20025;-57
2021/06/19 09:26:06;;;;;;;2.05;0.90;;;25.60;54.40;;;;;;5015299;28;20025;-57
2021/06/19 09:28:32;;;;;;;1.83;1.10;;;25.40;54.80;;;;;;5015019;28;20029;-56
2021/06/19 09:30:58;;;;;;;3.63;0.77;;;25.60;54.70;;;;;;5015301;28;20036;-57
2021/06/19 09:33:23;;;;;;;3.28;1.20;;;25.50;54.70;;;;;;5015245;28;20484;-56
2021/06/19 09:35:49;;;;;;;2.33;1.35;;;25.50;54.50;;;;;;5014144;28;20485;-57
2021/06/19 09:38:16;;;;;;;2.25;1.20;;;25.50;54.50;;;;;;5015046;28;20366;-56
2021/06/19 09:40:49;;;;;;;1.50;1.05;;;25.50;54.50;;;;;;5014815;28;20022;-56
2021/06/19 09:43:17;;;;;;;2.05;1.25;;;25.40;72.80;;;;;;5015147;28;20029;-56
2021/06/19 09:46:09;;;;;;;6.72;1.30;;;25.60;54.90;;;;;;5015112;28;20029;-58
2021/06/19 09:48:37;;;;;;;1.80;1.10;;;25.40;55.30;;;;;;5014402;28;20033;-58
2021/06/19 09:51:09;;;;;;;2.30;0.90;;;25.40;55.90;;;;;;5014333;28;20018;-55
2021/06/19 09:53:34;;;;;;;2.38;1.10;;;25.50;56.30;;;;;;5014757;28;20115;-57
2021/06/19 09:56:08;;;;;;;1.60;0.90;;;25.40;56.40;;;;;;5014848;28;20053;-56
2021/06/19 09:58:45;;;;;;;4.30;1.30;;;25.60;56.70;;;;;;5014666;28;20034;-57
2021/06/19 10:01:19;;;;;;;2.45;1.15;;;25.30;56.70;;;;;;5014018;28;20385;-57
2021/06/19 10:03:55;;;;;;;3.55;0.98;;;25.40;56.60;;;;;;5014959;28;20025;-57
2021/06/19 10:06:22;;;;;;;1.60;1.20;;;25.30;56.90;;;;;;5014344;28;20049;-57
2021/06/19 10:08:49;;;;;;;2.67;1.00;;;25.30;57.50;;;;;;5013412;28;20358;-57
2021/06/19 10:11:15;;;;;;;4.38;1.10;;;25.30;57.60;;;;;;5014871;28;20021;-56
2021/06/19 10:13:43;;;;;;;1.05;0.75;;;25.60;58.10;;;;;;5014486;28;20030;-57
2021/06/19 10:16:11;;;;;;;0.70;0.70;;;25.40;57.80;;;;;;5014330;28;20055;-61
2021/06/19 10:18:39;;;;;;;2.97;1.25;;;25.30;60.00;;;;;;5014458;28;20477;-61
2021/06/19 10:21:06;;;;;;;3.38;1.00;;;25.50;62.50;;;;;;5013039;28;20029;-60
2021/06/19 10:23:32;;;;;;;3.05;1.10;;;25.30;62.50;;;;;;5014591;28;20032;-60
2021/06/19 10:25:58;;;;;;;1.48;1.13;;;25.30;62.10;;;;;;5014188;28;20484;-60
2021/06/19 10:28:25;;;;;;;2.72;1.17;;;25.30;61.00;;;;;;5014176;28;20037;-60
2021/06/19 10:30:51;;;;;;;3.38;1.10;;;25.30;60.20;;;;;;5013922;28;20026;-60
2021/06/19 10:33:31;;;;;;;1.98;1.20;;;25.30;58.90;;;;;;5014063;28;20057;-61
2021/06/19 10:36:01;;;;;;;2.75;0.90;;;25.30;58.20;;;;;;5013943;28;20488;-60
2021/06/19 10:38:27;;;;;;;0.93;0.70;;;25.30;57.80;;;;;;5012795;28;20064;-61
2021/06/19 10:40:55;;;;;;;1.88;0.57;;;25.30;57.60;;;;;;5014096;28;20054;-61
2021/06/19 10:43:22;;;;;;;2.92;1.20;;;25.30;58.20;;;;;;5013982;28;20424;-61
2021/06/19 10:45:48;;;;;;;1.25;0.47;;;25.40;57.90;;;;;;5013580;28;20374;-61
2021/06/19 10:48:19;;;;;;;1.45;1.08;;;25.20;57.70;;;;;;5013923;28;20100;-60
2021/06/19 10:50:49;;;;;;;2.25;0.98;;;25.40;57.80;;;;;;5013518;28;20034;-61
2021/06/19 10:53:17;;;;;;;1.70;0.85;;;25.30;57.80;;;;;;5013453;28;20030;-60
2021/06/19 10:55:43;;;;;;;2.13;0.95;;;25.30;57.80;;;;;;5011978;28;20034;-61
2021/06/19 10:58:25;;;;;;;1.90;0.80;;;25.30;57.70;;;;;;5013858;28;20065;-60
2021/06/19 11:00:55;;;;;;;2.17;0.90;;;25.30;57.50;;;;;;5013532;28;20064;-61
2021/06/19 11:03:50;;;;;;;1.98;0.80;;;25.20;57.20;;;;;;5013620;28;20028;-61
2021/06/19 11:06:24;;;;;;;3.40;0.88;;;25.20;57.20;;;;;;5013338;28;20098;-62
2021/06/19 11:09:16;;;;;;;2.83;0.80;;;25.20;57.20;;;;;;5013380;28;20029;-61
2021/06/19 11:12:04;;;;;;;1.08;0.98;;;25.20;57.30;;;;;;5013285;28;20493;-62
2021/06/19 11:14:39;;;;;;;2.42;0.80;;;25.40;58.30;;;;;;5011744;28;20100;-61
2021/06/19 11:17:06;;;;;;;7.10;0.90;;;25.20;57.70;;;;;;5013513;28;20029;-61
2021/06/19 11:19:33;;;;;;;4.30;0.80;;;25.20;58.60;;;;;;5013536;28;20022;-61
2021/06/19 11:22:29;;;;;;;2.90;0.88;;;25.00;58.90;;;;;;5012992;28;20030;-62
2021/06/19 11:25:21;;;;;;;1.42;0.93;;;25.20;58.10;;;;;;5013252;28;20086;-62
2021/06/19 11:27:53;;;;;;;0.75;0.70;;;25.20;58.20;;;;;;5013190;28;20050;-62
2021/06/19 11:30:36;;;;;;;0.90;0.75;;;25.20;57.90;;;;;;5013294;28;20075;-63
2021/06/19 11:33:39;;;;;;;0.90;0.70;;;25.10;57.70;;;;;;5013012;28;20022;-62
2021/06/19 11:36:04;;;;;;;1.95;0.80;;;25.20;57.90;;;;;;5013518;28;20034;-62
2021/06/19 11:38:50;;;;;;;1.85;1.00;;;25.20;57.80;;;;;;5013284;28;20032;-62
2021/06/19 11:41:23;;;;;;;1.70;0.80;;;25.30;57.70;;;;;;5013414;28;20061;-62
2021/06/19 11:43:49;;;;;;;4.05;1.10;;;25.20;57.60;;;;;;5012971;28;20044;-59
2021/06/19 11:46:20;;;;;;;1.23;0.82;;;25.10;57.40;;;;;;5013081;28;20026;-59
2021/06/19 11:48:51;;;;;;;1.70;0.85;;;25.20;58.70;;;;;;5013401;28;20026;-59
2021/06/19 11:51:18;;;;;;;2.28;0.60;;;25.30;60.10;;;;;;5013217;28;20030;-59
2021/06/19 11:53:44;;;;;;;1.85;0.80;;;25.20;59.70;;;;;;5012840;28;20097;-59
2021/06/19 11:56:12;;;;;;;2.50;1.02;;;25.20;59.40;;;;;;5012989;28;20038;-60
2021/06/19 11:59:02;;;;;;;1.63;1.02;;;25.10;58.20;;;;;;5012689;28;20032;-60
2021/06/19 12:01:32;;;;;;;4.55;1.52;;;25.10;58.30;;;;;;5012890;28;20085;-60
2021/06/19 12:04:00;;;;;;;3.83;1.20;;;25.10;58.40;;;;;;5013141;28;20026;-60
2021/06/19 12:06:35;;;;;;;1.30;1.15;;;25.30;59.00;;;;;;5012684;28;20046;-61
2021/06/19 12:09:01;;;;;;;2.10;1.02;;;25.20;58.50;;;;;;5013167;28;20034;-61
2021/06/19 12:11:33;;;;;;;3.50;1.42;;;25.20;59.40;;;;;;5013153;28;20373;-62
2021/06/19 12:13:59;;;;;;;1.80;1.60;;;25.30;59.50;;;;;;5012624;28;20030;-61
2021/06/19 12:16:32;;;;;;;3.25;1.20;;;25.10;58.90;;;;;;5012806;28;20113;-61
2021/06/19 12:19:03;;;;;;;2.83;1.13;;;25.30;60.60;;;;;;5012788;28;20026;-61
2021/06/19 12:21:31;;;;;;;2.80;0.82;;;25.30;62.90;;;;;;5012550;28;20033;-60
2021/06/19 12:23:56;;;;;;;2.05;0.70;;;25.60;64.00;;;;;;5012891;28;20087;-60
2021/06/19 12:26:22;;;;;;;0.85;0.75;;;25.40;64.40;;;;;;5016405;28;20022;-59
2021/06/19 12:28:49;;;;;;;3.25;0.98;;;25.40;64.90;;;;;;5015152;28;20111;-60
2021/06/19 12:31:16;;;;;;;2.50;0.80;;;25.50;65.20;;;;;;5015213;28;20026;-61
2021/06/19 12:33:43;;;;;;;1.80;0.82;;;25.60;65.50;;;;;;5015091;28;20022;-60
2021/06/19 12:36:11;;;;;;;1.65;0.80;;;25.60;65.90;;;;;;5016363;28;20543;-60
2021/06/19 12:38:38;;;;;;;0.93;0.73;;;25.60;66.00;;;;;;5016630;28;20014;-61
2021/06/19 12:41:07;;;;;;;0.82;0.82;;;25.80;66.40;;;;;;5016530;28;20061;-60
2021/06/19 12:43:44;;;;;;;1.02;0.70;;;25.70;66.40;;;;;;5014984;28;20084;-61
2021/06/19 12:46:24;;;;;;;1.27;1.13;;;25.90;66.40;;;;;;5016183;28;20030;-61
2021/06/19 12:49:01;;;;;;;1.35;1.00;;;25.70;66.60;;;;;;5016241;28;20025;-61
2021/06/19 12:51:33;;;;;;;1.00;0.93;;;26.00;66.80;;;;;;5016434;28;20089;-60
2021/06/19 12:54:25;;;;;;;0.70;0.70;;;25.60;66.60;;;;;;5016308;28;20048;-61